createdAt,value
2023-02-14T00:01:23.476Z,102836.37
2023-02-14T00:03:51.310Z,102836.09
2023-02-14T00:06:19.221Z,102836.42
2023-02-14T00:08:47.015Z,102839.51
2023-02-14T00:11:14.911Z,102840.86
2023-02-14T00:14:05.502Z,102840.46
2023-02-14T00:16:33.574Z,102840.73
2023-02-14T00:19:04.538Z,102841.99
2023-02-14T00:21:36.180Z,102840.73
2023-02-14T00:24:08.463Z,102838.80
2023-02-14T00:26:38.891Z,102838.24
2023-02-14T00:29:08.016Z,102834.35
2023-02-14T00:31:38.910Z,102832.33
2023-02-14T00:34:06.880Z,102832.02
2023-02-14T00:36:36.484Z,102830.67
2023-02-14T00:39:05.318Z,102824.97
2023-02-14T00:41:33.499Z,102821.52
2023-02-14T00:44:01.760Z,102819.79
2023-02-14T00:46:30.158Z,102821.56
2023-02-14T00:48:58.222Z,102827.54
2023-02-14T00:51:26.347Z,102830.73
2023-02-14T00:53:54.437Z,102827.15
2023-02-14T00:56:22.285Z,102829.42
2023-02-14T00:58:50.734Z,102829.11
2023-02-14T01:01:19.305Z,102827.77
2023-02-14T01:03:47.401Z,102823.49
2023-02-14T01:06:15.328Z,102826.34
2023-02-14T01:08:43.092Z,102822.08
2023-02-14T01:11:13.654Z,102823.54
2023-02-14T01:13:42.036Z,102821.70
2023-02-14T01:16:12.915Z,102817.27
2023-02-14T01:18:41.709Z,102818.74
2023-02-14T01:21:36.173Z,102815.87
2023-02-14T01:24:05.811Z,102816.11
2023-02-14T01:26:35.047Z,102813.73
2023-02-14T01:29:08.541Z,102817.98
2023-02-14T01:31:36.620Z,102820.53
2023-02-14T01:34:05.190Z,102821.31
2023-02-14T01:36:35.337Z,102818.39
2023-02-14T01:39:08.520Z,102814.41
2023-02-14T01:41:37.988Z,102820.06
2023-02-14T01:44:07.582Z,102815.83
2023-02-14T01:46:37.175Z,102813.28
2023-02-14T01:49:15.530Z,102814.92
2023-02-14T01:51:45.143Z,102808.77
2023-02-14T01:54:12.955Z,102810.55
2023-02-14T01:56:43.859Z,102809.60
2023-02-14T01:59:13.067Z,102809.84
2023-02-14T02:01:41.904Z,102812.34
2023-02-14T02:04:12.205Z,102805.85
2023-02-14T02:06:51.744Z,102805.41
2023-02-14T02:09:27.622Z,102806.68
2023-02-14T02:11:55.671Z,102806.90
2023-02-14T02:14:23.514Z,102807.63
2023-02-14T02:17:00.866Z,102805.39
2023-02-14T02:19:41.081Z,102802.30
2023-02-14T02:22:15.204Z,102800.41
2023-02-14T02:24:45.704Z,102797.79
2023-02-14T02:27:16.356Z,102793.46
2023-02-14T02:29:47.016Z,102792.45
2023-02-14T02:32:35.181Z,102791.75
2023-02-14T02:35:18.253Z,102789.83
2023-02-14T02:37:52.254Z,102787.76
2023-02-14T02:40:22.773Z,102788.05
2023-02-14T02:43:09.236Z,102789.09
2023-02-14T02:46:10.053Z,102784.40
2023-02-14T02:48:43.924Z,102784.02
2023-02-14T02:51:33.566Z,102780.45
2023-02-14T02:54:10.149Z,102783.77
2023-02-14T02:56:47.068Z,102789.71
2023-02-14T02:59:21.095Z,102783.71
2023-02-14T03:01:58.744Z,102777.54
2023-02-14T03:04:46.612Z,102781.38
2023-02-14T03:07:33.284Z,102776.43
2023-02-14T03:10:21.449Z,102776.17
2023-02-14T03:13:09.213Z,102771.20
2023-02-14T03:15:49.374Z,102770.23
2023-02-14T03:18:46.262Z,102771.46
2023-02-14T03:21:33.305Z,102775.64
2023-02-14T03:24:01.193Z,102777.91
2023-02-14T03:26:43.899Z,102775.86
2023-02-14T03:29:31.629Z,102770.52
2023-02-14T03:32:02.439Z,102770.23
2023-02-14T03:34:30.599Z,102766.14
2023-02-14T03:37:03.700Z,102764.63
2023-02-14T03:39:37.775Z,102759.27
2023-02-14T03:42:16.355Z,102763.06
2023-02-14T03:44:45.607Z,102758.02
2023-02-14T03:47:16.634Z,102763.16
2023-02-14T03:49:51.186Z,102762.21
2023-02-14T03:52:20.056Z,102761.73
2023-02-14T03:54:52.322Z,102762.83
2023-02-14T03:57:24.394Z,102758.20
2023-02-14T03:59:52.739Z,102758.89
2023-02-14T04:02:32.504Z,102754.70
2023-02-14T04:05:01.816Z,102752.93
2023-02-14T04:07:29.683Z,102751.35
2023-02-14T04:09:57.512Z,102754.55
2023-02-14T04:12:37.124Z,102755.77
2023-02-14T04:15:06.212Z,102758.20
2023-02-14T04:17:52.919Z,102751.85
2023-02-14T04:20:20.908Z,102748.70
2023-02-14T04:22:51.741Z,102751.09
2023-02-14T04:25:19.993Z,102747.61
2023-02-14T04:27:48.095Z,102747.98
2023-02-14T04:30:18.155Z,102742.45
2023-02-14T04:32:46.807Z,102740.36
2023-02-14T04:35:15.272Z,102737.06
2023-02-14T04:37:43.342Z,102736.41
2023-02-14T04:40:11.593Z,102732.80
2023-02-14T04:42:39.866Z,102732.34
2023-02-14T04:45:07.969Z,102729.45
2023-02-14T04:47:35.811Z,102726.53
2023-02-14T04:50:03.762Z,102729.50
2023-02-14T04:52:31.702Z,102733.51
2023-02-14T04:54:59.855Z,102735.30
2023-02-14T04:57:28.200Z,102737.09
2023-02-14T04:59:56.355Z,102729.85
2023-02-14T05:02:24.680Z,102733.13
2023-02-14T05:04:53.089Z,102730.55
2023-02-14T05:07:21.166Z,102725.20
2023-02-14T05:09:49.013Z,102727.25
2023-02-14T05:12:17.116Z,102733.66
2023-02-14T05:14:48.365Z,102729.38
2023-02-14T05:17:16.456Z,102735.92
2023-02-14T05:19:44.404Z,102746.67
2023-02-14T05:22:32.755Z,102732.70
2023-02-14T05:25:00.922Z,102735.98
2023-02-14T05:27:29.436Z,102745.49
2023-02-14T05:30:07.737Z,102743.44
2023-02-14T05:32:44.633Z,102749.66
2023-02-14T05:35:12.646Z,102753.79
2023-02-14T05:37:40.584Z,102757.24
2023-02-14T05:40:32.274Z,102756.34
2023-02-14T05:43:30.740Z,102763.60
2023-02-14T05:46:16.210Z,102764.13
2023-02-14T05:49:07.649Z,102763.43
2023-02-14T05:51:35.946Z,102763.08
2023-02-14T05:54:12.792Z,102757.58
2023-02-14T05:57:03.916Z,102762.42
2023-02-14T05:59:37.857Z,102772.65
2023-02-14T06:02:13.539Z,102772.35
2023-02-14T06:04:46.948Z,102763.20
2023-02-14T06:07:17.422Z,102762.18
2023-02-14T06:10:15.514Z,102758.20
2023-02-14T06:13:16.543Z,102757.32
2023-02-14T06:15:44.562Z,102765.30
2023-02-14T06:18:15.412Z,102760.15
2023-02-14T06:20:43.380Z,102764.85
2023-02-14T06:23:14.718Z,102765.71
2023-02-14T06:25:45.048Z,102767.28
2023-02-14T06:28:13.340Z,102772.86
2023-02-14T06:30:43.753Z,102775.16
2023-02-14T06:33:35.418Z,102770.23
2023-02-14T06:36:33.728Z,102777.88
2023-02-14T06:39:02.065Z,102783.78
2023-02-14T06:41:39.884Z,102788.96
2023-02-14T06:44:11.108Z,102792.41
2023-02-14T06:46:56.498Z,102794.67
2023-02-14T06:50:05.141Z,102793.45
2023-02-14T06:52:38.869Z,102792.70
2023-02-14T06:55:37.385Z,102796.65
2023-02-14T06:58:12.939Z,102792.63
2023-02-14T07:01:04.095Z,102800.34
2023-02-14T07:03:41.932Z,102807.03
2023-02-14T07:06:32.872Z,102802.15
2023-02-14T07:09:21.131Z,102799.16
2023-02-14T07:11:49.546Z,102798.73
2023-02-14T07:14:21.574Z,102797.12
2023-02-14T07:17:12.784Z,102805.52
2023-02-14T07:20:21.187Z,102801.64
2023-02-14T07:23:29.763Z,102802.26
2023-02-14T07:26:21.070Z,102806.35
2023-02-14T07:29:13.546Z,102806.11
2023-02-14T07:32:23.212Z,102810.02
2023-02-14T07:35:20.336Z,102816.15
2023-02-14T07:38:06.196Z,102814.66
2023-02-14T07:40:37.456Z,102813.17
2023-02-14T07:43:27.868Z,102812.43
2023-02-14T07:46:21.325Z,102815.33
2023-02-14T07:49:00.404Z,102820.14
2023-02-14T07:52:08.737Z,102823.46
2023-02-14T07:55:00.092Z,102828.30
2023-02-14T07:57:57.377Z,102826.41
2023-02-14T08:00:48.858Z,102823.42
2023-02-14T08:03:47.182Z,102825.23
2023-02-14T08:06:29.597Z,102830.29
2023-02-14T08:09:36.730Z,102827.64
2023-02-14T08:12:23.712Z,102819.90
2023-02-14T08:15:14.863Z,102818.90
2023-02-14T08:18:13.296Z,102817.59
2023-02-14T08:21:01.969Z,102820.07
2023-02-14T08:23:53.476Z,102818.86
2023-02-14T08:26:39.385Z,102812.44
2023-02-14T08:29:30.710Z,102816.07
2023-02-14T08:32:39.194Z,102819.67
2023-02-14T08:35:09.981Z,102818.75
2023-02-14T08:37:51.284Z,102823.26
2023-02-14T08:41:00.151Z,102828.09
2023-02-14T08:43:39.813Z,102829.13
2023-02-14T08:46:23.797Z,102829.65
2023-02-14T08:49:14.875Z,102828.06
2023-02-14T08:52:06.590Z,102827.14
2023-02-14T08:54:34.679Z,102821.69
2023-02-14T08:57:15.675Z,102817.69
2023-02-14T08:59:56.707Z,102816.27
2023-02-14T09:03:03.672Z,102819.92
2023-02-14T09:05:52.293Z,102816.98
2023-02-14T09:09:02.496Z,102820.11
2023-02-14T09:11:51.151Z,102819.38
2023-02-14T09:14:31.139Z,102821.63
2023-02-14T09:17:31.126Z,102819.85
2023-02-14T09:20:19.322Z,102825.23
2023-02-14T09:23:27.644Z,102822.83
2023-02-14T09:26:29.602Z,102821.95
2023-02-14T09:29:00.237Z,102818.58
2023-02-14T09:32:01.672Z,102813.91
2023-02-14T09:35:10.490Z,102812.38
2023-02-14T09:38:18.926Z,102808.23
2023-02-14T09:41:27.298Z,102801.77
2023-02-14T09:44:37.314Z,102800.17
2023-02-14T09:47:48.608Z,102804.16
2023-02-14T09:50:19.665Z,102806.07
2023-02-14T09:52:50.442Z,102810.01
2023-02-14T09:55:32.186Z,102807.38
2023-02-14T09:58:07.044Z,102808.12
2023-02-14T10:01:19.735Z,102808.16
2023-02-14T10:04:31.091Z,102808.80
2023-02-14T10:07:39.453Z,102806.73
2023-02-14T10:10:57.351Z,102799.35
2023-02-14T10:14:08.269Z,102798.59
2023-02-14T10:17:20.074Z,102797.65
2023-02-14T10:20:34.619Z,102799.37
2023-02-14T10:23:58.178Z,102801.30
2023-02-14T10:27:11.168Z,102802.63
2023-02-14T10:30:09.933Z,102803.95
2023-02-14T10:33:15.762Z,102805.41
2023-02-14T10:36:04.007Z,102803.72
2023-02-14T10:39:12.675Z,102808.02
2023-02-14T10:42:11.032Z,102801.45
2023-02-14T10:45:22.425Z,102802.64
2023-02-14T10:48:36.772Z,102803.20
2023-02-14T10:51:57.257Z,102802.33
2023-02-14T10:55:05.663Z,102799.39
2023-02-14T10:58:14.079Z,102800.09
2023-02-14T11:01:06.971Z,102799.14
2023-02-14T11:04:16.551Z,102800.64
2023-02-14T11:06:48.569Z,102793.36
2023-02-14T11:09:56.842Z,102793.20
2023-02-14T11:13:00.523Z,102792.59
2023-02-14T11:15:52.001Z,102793.85
2023-02-14T11:18:41.099Z,102793.07
2023-02-14T11:21:28.419Z,102789.48
2023-02-14T11:24:29.787Z,102782.09
2023-02-14T11:27:31.286Z,102772.39
2023-02-14T11:30:39.792Z,102763.01
2023-02-14T11:33:32.180Z,102763.20
2023-02-14T11:36:22.209Z,102761.25
2023-02-14T11:39:27.733Z,102763.83
2023-02-14T11:42:16.156Z,102761.67
2023-02-14T11:45:05.324Z,102760.70
2023-02-14T11:47:59.322Z,102752.17
2023-02-14T11:50:47.481Z,102746.90
2023-02-14T11:53:50.098Z,102747.02
2023-02-14T11:56:58.852Z,102746.86
2023-02-14T12:00:07.438Z,102749.67
2023-02-14T12:03:18.988Z,102747.27
2023-02-14T12:06:04.010Z,102741.27
2023-02-14T12:08:37.672Z,102738.08
2023-02-14T12:11:46.053Z,102736.48
2023-02-14T12:14:53.597Z,102728.74
2023-02-14T12:18:06.222Z,102721.23
2023-02-14T12:21:20.360Z,102713.63
2023-02-14T12:24:31.736Z,102706.69
2023-02-14T12:27:38.531Z,102707.42
2023-02-14T12:30:47.403Z,102705.08
2023-02-14T12:33:47.554Z,102701.13
2023-02-14T12:36:57.337Z,102695.80
2023-02-14T12:40:05.613Z,102688.64
2023-02-14T12:43:12.171Z,102684.15
2023-02-14T12:46:32.531Z,102679.46
2023-02-14T12:49:39.693Z,102670.59
2023-02-14T12:53:00.411Z,102670.33
2023-02-14T12:56:14.980Z,102666.24
2023-02-14T12:59:32.363Z,102662.35
2023-02-14T13:02:56.201Z,102661.23
2023-02-14T13:05:43.039Z,102659.40
2023-02-14T13:08:16.507Z,102657.22
2023-02-14T13:10:55.376Z,102652.59
2023-02-14T13:14:04.114Z,102652.58
2023-02-14T13:16:38.166Z,102649.21
2023-02-14T13:19:37.758Z,102645.48
2023-02-14T13:22:46.062Z,102644.09
2023-02-14T13:25:54.685Z,102644.20
2023-02-14T13:28:55.738Z,102639.17
2023-02-14T13:32:04.546Z,102631.90
2023-02-14T13:34:38.851Z,102627.47
2023-02-14T13:37:47.251Z,102624.73
2023-02-14T13:41:01.681Z,102624.04
2023-02-14T13:44:08.818Z,102623.87
2023-02-14T13:47:10.025Z,102621.69
2023-02-14T13:50:08.798Z,102615.93
2023-02-14T13:53:07.455Z,102615.70
2023-02-14T13:55:36.458Z,102611.41
2023-02-14T13:58:16.312Z,102609.05
2023-02-14T14:00:55.966Z,102603.63
2023-02-14T14:03:31.381Z,102602.05
2023-02-14T14:06:00.008Z,102599.23
2023-02-14T14:09:10.432Z,102593.94
2023-02-14T14:12:19.265Z,102593.90
2023-02-14T14:15:26.117Z,102597.83
2023-02-14T14:18:33.263Z,102587.85
2023-02-14T14:21:21.448Z,102583.71
2023-02-14T14:24:18.391Z,102582.77
2023-02-14T14:26:50.213Z,102577.77
2023-02-14T14:29:52.571Z,102578.48
2023-02-14T14:32:28.671Z,102574.47
2023-02-14T14:35:20.003Z,102570.92
2023-02-14T14:38:34.442Z,102563.60
2023-02-14T14:41:43.254Z,102559.23
2023-02-14T14:44:31.370Z,102558.63
2023-02-14T14:47:39.843Z,102551.98
2023-02-14T14:50:48.401Z,102550.48
2023-02-14T14:53:48.078Z,102547.08
2023-02-14T14:56:59.280Z,102543.62
2023-02-14T15:00:10.597Z,102542.02
2023-02-14T15:02:44.303Z,102540.68
2023-02-14T15:05:37.907Z,102536.41
2023-02-14T15:08:24.761Z,102535.00
2023-02-14T15:11:33.116Z,102536.84
2023-02-14T15:14:03.372Z,102532.09
2023-02-14T15:16:46.541Z,102530.16
2023-02-14T15:19:20.741Z,102528.55
2023-02-14T15:22:19.285Z,102525.05
2023-02-14T15:25:27.699Z,102528.51
2023-02-14T15:28:17.474Z,102525.33
2023-02-14T15:31:26.143Z,102526.46
2023-02-14T15:34:00.169Z,102516.85
2023-02-14T15:36:32.217Z,102514.69
2023-02-14T15:39:04.374Z,102514.33
2023-02-14T15:41:35.274Z,102510.70
2023-02-14T15:44:05.764Z,102508.73
2023-02-14T15:46:43.790Z,102506.27
2023-02-14T15:49:15.132Z,102505.85
2023-02-14T15:51:46.875Z,102508.02
2023-02-14T15:55:10.554Z,102507.65
2023-02-14T15:57:58.715Z,102506.52
2023-02-14T16:01:07.036Z,102506.36
2023-02-14T16:03:39.253Z,102502.64
2023-02-14T16:06:49.917Z,102500.98
2023-02-14T16:10:00.662Z,102501.42
2023-02-14T16:13:01.476Z,102497.87
2023-02-14T16:15:49.679Z,102501.08
2023-02-14T16:18:50.110Z,102499.67
2023-02-14T16:21:55.667Z,102496.18
2023-02-14T16:24:35.190Z,102495.60
2023-02-14T16:27:07.062Z,102498.16
2023-02-14T16:29:36.582Z,102498.58
2023-02-14T16:32:19.298Z,102498.77
2023-02-14T16:34:48.378Z,102499.02
2023-02-14T16:37:27.523Z,102498.86
2023-02-14T16:40:01.314Z,102499.13
2023-02-14T16:42:42.195Z,102502.05
2023-02-14T16:45:49.987Z,102496.98
2023-02-14T16:48:57.274Z,102493.08
2023-02-14T16:51:30.391Z,102494.39
2023-02-14T16:54:39.091Z,102498.77
2023-02-14T16:57:23.657Z,102500.98
2023-02-14T17:00:16.322Z,102503.27
2023-02-14T17:03:24.790Z,102503.67
2023-02-14T17:05:58.194Z,102501.91
2023-02-14T17:08:56.698Z,102501.39
2023-02-14T17:11:27.602Z,102503.52
2023-02-14T17:14:27.216Z,102498.35
2023-02-14T17:17:06.750Z,102501.85
2023-02-14T17:19:41.922Z,102500.67
2023-02-14T17:22:35.122Z,102504.37
2023-02-14T17:25:03.815Z,102513.05
2023-02-14T17:27:32.248Z,102513.70
2023-02-14T17:30:00.431Z,102512.52
2023-02-14T17:32:28.536Z,102512.54
2023-02-14T17:35:02.914Z,102511.56
2023-02-14T17:37:31.406Z,102509.70
2023-02-14T17:40:10.420Z,102509.05
2023-02-14T17:42:42.244Z,102506.41
2023-02-14T17:45:15.675Z,102506.70
2023-02-14T17:47:49.821Z,102507.86
2023-02-14T17:50:18.276Z,102508.14
2023-02-14T17:52:49.251Z,102506.58
2023-02-14T17:55:19.973Z,102509.27
2023-02-14T17:57:52.490Z,102501.79
2023-02-14T18:00:32.346Z,102502.48
2023-02-14T18:03:00.498Z,102501.35
2023-02-14T18:05:32.218Z,102498.38
2023-02-14T18:08:00.269Z,102498.79
2023-02-14T18:10:47.312Z,102497.38
2023-02-14T18:13:15.437Z,102498.59
2023-02-14T18:15:55.020Z,102498.48
2023-02-14T18:18:23.404Z,102494.23
2023-02-14T18:20:58.157Z,102496.67
2023-02-14T18:23:31.146Z,102498.96
2023-02-14T18:26:04.386Z,102496.15
2023-02-14T18:28:32.736Z,102494.56
2023-02-14T18:31:11.150Z,102491.56
2023-02-14T18:33:42.621Z,102491.42
2023-02-14T18:36:31.795Z,102487.64
2023-02-14T18:39:02.066Z,102487.02
2023-02-14T18:41:54.515Z,102487.10
2023-02-14T18:44:25.465Z,102483.31
2023-02-14T18:46:53.756Z,102484.52
2023-02-14T18:49:33.362Z,102481.20
2023-02-14T18:52:15.658Z,102477.04
2023-02-14T18:55:14.448Z,102474.61
2023-02-14T18:57:45.415Z,102467.69
2023-02-14T19:00:14.557Z,102465.59
2023-02-14T19:02:51.603Z,102464.89
2023-02-14T19:05:26.047Z,102459.36
2023-02-14T19:08:00.515Z,102457.29
2023-02-14T19:10:28.695Z,102451.54
2023-02-14T19:12:59.860Z,102452.74
2023-02-14T19:15:28.311Z,102452.56
2023-02-14T19:17:56.321Z,102455.85
2023-02-14T19:20:24.336Z,102451.11
2023-02-14T19:22:52.367Z,102452.96
2023-02-14T19:25:22.918Z,102454.32
2023-02-14T19:27:53.198Z,102454.30
2023-02-14T19:30:29.901Z,102458.27
2023-02-14T19:32:58.343Z,102451.43
2023-02-14T19:35:28.971Z,102450.90
2023-02-14T19:38:37.248Z,102454.79
2023-02-14T19:41:25.934Z,102455.02
2023-02-14T19:44:17.691Z,102453.55
2023-02-14T19:46:46.614Z,102459.95
2023-02-14T19:49:54.936Z,102463.67
2023-02-14T19:52:28.316Z,102461.00
2023-02-14T19:55:02.786Z,102463.48
2023-02-14T19:57:30.930Z,102463.20
2023-02-14T20:00:21.086Z,102459.19
2023-02-14T20:02:52.876Z,102456.89
2023-02-14T20:05:23.186Z,102456.35
2023-02-14T20:08:00.485Z,102454.02
2023-02-14T20:10:41.779Z,102450.10
2023-02-14T20:13:18.020Z,102447.20
2023-02-14T20:15:52.056Z,102444.98
2023-02-14T20:18:24.777Z,102443.97
2023-02-14T20:21:04.781Z,102440.48
2023-02-14T20:23:36.503Z,102440.95
2023-02-14T20:26:04.987Z,102438.57
2023-02-14T20:28:33.227Z,102437.95
2023-02-14T20:31:06.177Z,102436.45
2023-02-14T20:33:34.506Z,102434.83
2023-02-14T20:36:06.226Z,102430.94
2023-02-14T20:38:35.619Z,102426.89
2023-02-14T20:41:19.713Z,102425.85
2023-02-14T20:43:50.877Z,102421.67
2023-02-14T20:46:22.126Z,102417.11
2023-02-14T20:48:51.221Z,102413.81
2023-02-14T20:51:38.696Z,102411.56
2023-02-14T20:54:07.333Z,102413.48
2023-02-14T20:56:35.704Z,102412.16
2023-02-14T20:59:09.811Z,102411.47
2023-02-14T21:01:38.244Z,102404.98
2023-02-14T21:04:16.959Z,102403.85
2023-02-14T21:06:49.152Z,102399.05
2023-02-14T21:09:18.806Z,102393.66
2023-02-14T21:11:46.874Z,102388.36
2023-02-14T21:14:17.720Z,102390.33
2023-02-14T21:16:46.190Z,102392.42
2023-02-14T21:19:14.462Z,102390.54
2023-02-14T21:21:42.585Z,102390.85
2023-02-14T21:24:12.332Z,102391.12
2023-02-14T21:26:43.352Z,102389.02
2023-02-14T21:29:11.719Z,102387.30
2023-02-14T21:31:39.759Z,102385.39
2023-02-14T21:34:10.665Z,102386.39
2023-02-14T21:36:38.791Z,102387.73
2023-02-14T21:39:10.028Z,102384.27
2023-02-14T21:41:38.099Z,102384.98
2023-02-14T21:44:06.993Z,102385.23
2023-02-14T21:46:41.671Z,102385.48
2023-02-14T21:49:31.595Z,102384.57
2023-02-14T21:52:02.122Z,102380.41
2023-02-14T21:54:30.355Z,102378.41
2023-02-14T21:57:02.850Z,102375.55
2023-02-14T21:59:34.758Z,102374.58
2023-02-14T22:02:06.524Z,102379.11
2023-02-14T22:04:35.609Z,102377.38
2023-02-14T22:07:04.303Z,102377.10
2023-02-14T22:09:32.437Z,102380.04
2023-02-14T22:12:03.396Z,102375.86
2023-02-14T22:14:31.272Z,102373.17
2023-02-14T22:17:02.256Z,102373.58
2023-02-14T22:19:30.420Z,102371.50
2023-02-14T22:22:01.039Z,102369.22
2023-02-14T22:24:29.352Z,102368.84
2023-02-14T22:26:57.425Z,102373.18
2023-02-14T22:29:25.539Z,102373.36
2023-02-14T22:31:53.795Z,102376.16
2023-02-14T22:34:22.036Z,102362.84
2023-02-14T22:36:57.821Z,102358.73
2023-02-14T22:39:39.759Z,102355.00
2023-02-14T22:42:11.195Z,102357.20
2023-02-14T22:44:44.807Z,102359.52
2023-02-14T22:47:33.270Z,102358.34
2023-02-14T22:50:01.569Z,102358.34
2023-02-14T22:52:33.958Z,102353.62
2023-02-14T22:55:02.425Z,102353.92
2023-02-14T22:57:31.364Z,102352.81
2023-02-14T22:59:59.448Z,102352.06
2023-02-14T23:02:27.493Z,102346.83
2023-02-14T23:04:57.841Z,102348.25
2023-02-14T23:07:25.868Z,102351.63
2023-02-14T23:09:53.878Z,102351.71
2023-02-14T23:12:40.420Z,102354.55
2023-02-14T23:15:28.438Z,102350.95
2023-02-14T23:18:14.910Z,102345.07
2023-02-14T23:21:01.810Z,102343.91
2023-02-14T23:23:33.370Z,102342.73
2023-02-14T23:26:01.689Z,102338.96
2023-02-14T23:28:39.041Z,102337.42
2023-02-14T23:31:09.735Z,102340.06
2023-02-14T23:33:55.273Z,102339.59
2023-02-14T23:36:25.963Z,102337.44
2023-02-14T23:39:23.579Z,102330.80
2023-02-14T23:41:51.854Z,102328.45
2023-02-14T23:44:30.966Z,102328.02
2023-02-14T23:47:00.094Z,102325.91
2023-02-14T23:49:28.463Z,102327.07
2023-02-14T23:51:58.981Z,102327.35
2023-02-14T23:54:27.012Z,102324.91
2023-02-14T23:56:58.070Z,102326.46
